Terminal Aerodrome Forecast
Issued by NWS

Home | Current Version | Previous Version | Graphics & Text | Print | Product List | Glossary On
Versions: 1 2 3 4 5 6 7 8 9 10 11 12 13 14 15 16 17 18
366
FTUS43 KMPX 221740
TAFRNH
TAF
KRNH 221740Z 2218/2318 10007KT P6SM OVC040
     FM230000 11007KT 1 1/2SM -SN BR VV015
     FM230200 12007KT 1/2SM SN FZFG VV005
     FM231000 12005KT 6SM -SHSN OVC008
     FM231200 22004KT P6SM OVC015
     FM231600 27008KT P6SM BKN035=

USA.gov is the U.S. government's official web portal to all federal, state and local government web resources and services.